createdAt,value
2022-08-30T06:31:44.809Z,13.73
2022-08-30T06:34:13.176Z,7.93
2022-08-30T06:36:42.388Z,11.20
2022-08-30T06:39:13.614Z,8.63
2022-08-30T06:41:42.735Z,8.03
2022-08-30T06:44:14.525Z,7.87
2022-08-30T06:46:45.196Z,7.43
2022-08-30T06:49:14.363Z,7.43
2022-08-30T06:51:47.386Z,6.90
2022-08-30T06:54:22.803Z,6.70
2022-08-30T06:56:58.562Z,7.30
2022-08-30T06:59:28.760Z,8.33
2022-08-30T07:01:58.820Z,7.73
2022-08-30T07:04:31.682Z,7.90
2022-08-30T07:07:00.117Z,11.73
2022-08-30T07:09:28.261Z,8.00
2022-08-30T07:11:57.364Z,9.03
2022-08-30T07:14:25.410Z,7.10
2022-08-30T07:16:53.740Z,7.73
2022-08-30T07:19:22.978Z,9.50
2022-08-30T07:21:51.904Z,7.40
2022-08-30T07:24:23.245Z,8.27
2022-08-30T07:26:52.454Z,8.70
2022-08-30T07:29:24.492Z,7.70
2022-08-30T07:31:52.557Z,7.13
2022-08-30T07:34:23.392Z,7.65
2022-08-30T07:36:54.033Z,7.32
2022-08-30T07:39:22.325Z,6.93
2022-08-30T07:41:52.474Z,8.50
2022-08-30T07:44:20.556Z,6.75
2022-08-30T07:46:53.310Z,8.07
2022-08-30T07:49:22.883Z,11.95
2022-08-30T07:51:52.194Z,7.65
2022-08-30T07:54:20.343Z,7.30
2022-08-30T07:56:48.649Z,8.13
2022-08-30T07:59:16.720Z,7.97
2022-08-30T08:01:44.865Z,6.80
2022-08-30T08:04:13.436Z,10.18
2022-08-30T08:06:45.230Z,7.75
2022-08-30T08:09:13.338Z,7.78
2022-08-30T08:11:41.829Z,6.78
2022-08-30T08:14:10.764Z,6.68
2022-08-30T08:16:40.060Z,7.00
2022-08-30T08:19:09.445Z,7.68
2022-08-30T08:21:39.461Z,7.43
2022-08-30T08:24:09.505Z,7.20
2022-08-30T08:26:37.939Z,9.43
2022-08-30T08:29:13.405Z,7.38
2022-08-30T08:31:42.125Z,7.15
2022-08-30T08:34:11.687Z,6.95
2022-08-30T08:36:40.260Z,9.15
2022-08-30T08:39:11.032Z,9.52
2022-08-30T08:41:54.171Z,8.15
2022-08-30T08:44:35.555Z,7.05
2022-08-30T08:47:13.823Z,7.20
2022-08-30T08:49:45.880Z,6.32
2022-08-30T08:52:39.839Z,7.03
2022-08-30T08:55:13.515Z,8.10
2022-08-30T08:57:42.550Z,6.38
2022-08-30T09:00:13.830Z,7.03
2022-08-30T09:02:44.808Z,8.88
2022-08-30T09:05:18.541Z,6.90
2022-08-30T09:07:50.960Z,6.78
2022-08-30T09:10:40.375Z,6.63
2022-08-30T09:13:11.317Z,6.60
2022-08-30T09:15:42.936Z,5.45
2022-08-30T09:18:19.255Z,6.72
2022-08-30T09:20:51.566Z,10.70
2022-08-30T09:23:28.375Z,7.15
2022-08-30T09:26:00.480Z,7.05
2022-08-30T09:28:30.692Z,5.57
2022-08-30T09:31:03.778Z,5.90
2022-08-30T09:33:33.524Z,6.70
2022-08-30T09:36:20.339Z,8.07
2022-08-30T09:38:59.892Z,5.35
2022-08-30T09:41:35.391Z,5.40
2022-08-30T09:44:10.893Z,6.53
2022-08-30T09:46:47.540Z,6.55
2022-08-30T09:49:34.521Z,6.50
2022-08-30T09:52:13.889Z,5.60
2022-08-30T09:55:03.384Z,5.60
2022-08-30T09:57:39.101Z,4.93
2022-08-30T10:00:13.443Z,7.95
2022-08-30T10:03:05.453Z,6.00
2022-08-30T10:05:42.136Z,5.32
2022-08-30T10:08:21.207Z,5.03
2022-08-30T10:10:58.151Z,5.57
2022-08-30T10:14:05.660Z,6.07
2022-08-30T10:16:46.695Z,4.40
2022-08-30T10:19:24.527Z,4.10
2022-08-30T10:22:00.156Z,5.25
2022-08-30T10:27:26.485Z,5.18
2022-08-30T10:30:00.420Z,7.88
2022-08-30T10:32:35.568Z,5.00
2022-08-30T10:35:09.044Z,6.55
2022-08-30T10:37:44.785Z,5.50
2022-08-30T10:40:34.386Z,4.20
2022-08-30T10:43:09.871Z,6.07
2022-08-30T10:45:41.570Z,3.95
2022-08-30T10:48:19.493Z,4.60
2022-08-30T10:50:53.574Z,5.28
2022-08-30T10:53:30.606Z,3.72
2022-08-30T10:56:03.976Z,4.97
2022-08-30T10:58:41.391Z,4.13
2022-08-30T11:01:26.729Z,3.60
2022-08-30T11:04:36.525Z,3.90
2022-08-30T11:07:17.250Z,3.90
2022-08-30T11:10:15.587Z,4.30
2022-08-30T11:12:55.343Z,3.45
2022-08-30T11:15:27.666Z,5.15
2022-08-30T11:18:00.559Z,3.47
2022-08-30T11:20:40.104Z,7.13
2022-08-30T11:23:32.879Z,5.93
2022-08-30T11:26:04.373Z,4.47
2022-08-30T11:29:05.536Z,4.88
2022-08-30T11:31:39.544Z,4.63
2022-08-30T11:34:09.755Z,4.57
2022-08-30T11:37:10.520Z,3.92
2022-08-30T11:40:02.077Z,5.57
2022-08-30T11:42:36.793Z,5.00
2022-08-30T11:45:42.586Z,4.63
2022-08-30T11:48:55.965Z,4.93
2022-08-30T11:52:26.379Z,5.03
2022-08-30T11:54:57.537Z,5.40
2022-08-30T11:57:32.645Z,4.07
2022-08-30T12:00:11.172Z,4.53
2022-08-30T12:02:56.791Z,3.80
2022-08-30T12:05:51.802Z,5.37
2022-08-30T12:08:55.211Z,5.10
2022-08-30T12:12:01.066Z,5.53
2022-08-30T12:14:41.278Z,4.23
2022-08-30T12:17:36.399Z,4.47
2022-08-30T12:20:06.704Z,5.07
2022-08-30T12:22:37.808Z,4.67
2022-08-30T12:25:18.070Z,4.13
2022-08-30T12:27:46.633Z,4.27
2022-08-30T12:30:27.965Z,4.73
2022-08-30T12:32:58.617Z,5.53
2022-08-30T12:35:29.236Z,4.73
2022-08-30T12:38:02.088Z,4.63
2022-08-30T12:40:34.861Z,7.43
2022-08-30T12:43:05.680Z,6.13
2022-08-30T12:45:43.063Z,4.53
2022-08-30T12:48:15.810Z,4.47
2022-08-30T12:50:52.039Z,6.03
2022-08-30T12:53:27.955Z,5.17
2022-08-30T12:56:00.387Z,5.03
2022-08-30T12:58:44.161Z,5.53
2022-08-30T13:01:19.341Z,5.23
2022-08-30T13:04:02.254Z,4.23
2022-08-30T13:06:52.847Z,4.87
2022-08-30T13:09:32.435Z,5.93
2022-08-30T13:12:02.771Z,5.33
2022-08-30T13:14:34.744Z,5.77
2022-08-30T13:17:28.583Z,5.50
2022-08-30T13:20:06.728Z,6.43
2022-08-30T13:22:36.630Z,6.33
2022-08-30T13:25:06.040Z,5.43
2022-08-30T13:27:37.096Z,6.73
2022-08-30T13:30:13.396Z,5.60
2022-08-30T13:32:44.309Z,6.40
2022-08-30T13:35:13.876Z,7.33
2022-08-30T13:37:49.787Z,5.80
2022-08-30T13:40:21.259Z,4.90
2022-08-30T13:42:50.390Z,8.57
2022-08-30T13:48:11.833Z,7.43
2022-08-30T13:50:40.512Z,5.67
2022-08-30T13:53:09.231Z,7.10
2022-08-30T13:55:37.849Z,6.80
2022-08-30T13:58:06.140Z,5.87
2022-08-30T14:00:37.637Z,6.30
2022-08-30T14:03:06.536Z,4.23
2022-08-30T14:05:49.491Z,6.90
2022-08-30T14:11:12.667Z,4.23
2022-08-30T14:16:32.339Z,4.20
2022-08-30T14:19:01.963Z,4.20
2022-08-30T14:21:31.499Z,6.07
2022-08-30T14:24:03.836Z,10.33
2022-08-30T14:26:38.778Z,4.13
2022-08-30T14:29:10.548Z,5.03
2022-08-30T14:31:39.753Z,5.57
2022-08-30T14:34:09.755Z,6.47
2022-08-30T14:36:43.870Z,7.87
2022-08-30T14:39:14.526Z,4.67
2022-08-30T14:41:45.408Z,7.67
2022-08-30T14:44:15.279Z,4.43
2022-08-30T14:46:44.093Z,4.83
2022-08-30T14:49:12.746Z,5.83
2022-08-30T14:51:42.854Z,4.33
2022-08-30T14:54:11.363Z,4.13
2022-08-30T14:56:40.967Z,5.40
2022-08-30T14:59:09.671Z,5.10
2022-08-30T15:01:41.317Z,4.80
2022-08-30T15:04:10.506Z,6.20
2022-08-30T15:06:42.534Z,7.13
2022-08-30T15:09:15.136Z,5.03
2022-08-30T15:11:44.549Z,5.27
2022-08-30T15:14:16.306Z,5.00
2022-08-30T15:16:45.549Z,4.63
2022-08-30T15:19:14.504Z,5.07
2022-08-30T15:21:46.518Z,4.60
2022-08-30T15:24:19.452Z,5.53
2022-08-30T15:26:53.463Z,6.03
2022-08-30T15:29:23.232Z,5.70
2022-08-30T15:31:52.159Z,5.63
2022-08-30T15:34:27.885Z,4.43
2022-08-30T15:36:59.174Z,6.33
2022-08-30T15:39:27.650Z,5.43
2022-08-30T15:42:01.169Z,3.73
2022-08-30T15:44:30.092Z,6.00
2022-08-30T15:46:58.440Z,4.23
2022-08-30T15:49:27.099Z,5.60
2022-08-30T15:52:00.940Z,6.03
2022-08-30T15:54:29.700Z,5.90
2022-08-30T15:57:00.044Z,4.97
2022-08-30T15:59:28.574Z,4.97
2022-08-30T16:01:57.281Z,4.23
2022-08-30T16:04:26.069Z,4.97
2022-08-30T16:06:54.874Z,4.53
2022-08-30T16:09:26.561Z,4.97
2022-08-30T16:12:02.253Z,5.77
2022-08-30T16:14:33.128Z,5.00
2022-08-30T16:17:01.673Z,4.73
2022-08-30T16:19:30.077Z,4.13
2022-08-30T16:21:58.764Z,4.33
2022-08-30T16:24:28.473Z,5.37
2022-08-30T16:26:56.623Z,5.47
2022-08-30T16:29:24.673Z,4.57
2022-08-30T16:31:55.509Z,6.67
2022-08-30T16:34:23.635Z,6.93
2022-08-30T16:36:54.351Z,6.60
2022-08-30T16:39:22.436Z,5.03
2022-08-30T16:41:52.636Z,5.73
2022-08-30T16:44:20.902Z,5.07
2022-08-30T16:46:53.238Z,6.60
2022-08-30T16:49:25.359Z,7.07
2022-08-30T16:51:57.876Z,5.90
2022-08-30T16:54:26.509Z,5.10
2022-08-30T16:56:56.252Z,5.53
2022-08-30T16:59:25.451Z,7.67
2022-08-30T17:01:53.656Z,6.30
2022-08-30T17:04:22.947Z,5.20
2022-08-30T17:06:51.592Z,6.63
2022-08-30T17:09:20.861Z,5.67
2022-08-30T17:11:50.967Z,6.33
2022-08-30T17:14:28.111Z,5.63
2022-08-30T17:16:58.139Z,4.90
2022-08-30T17:19:28.900Z,6.90
2022-08-30T17:21:58.484Z,6.17
2022-08-30T17:24:27.148Z,8.17
2022-08-30T17:26:55.637Z,5.33
2022-08-30T17:29:25.197Z,7.20
2022-08-30T17:31:54.088Z,6.30
2022-08-30T17:34:23.329Z,5.67
2022-08-30T17:36:57.144Z,11.07
2022-08-30T17:39:25.790Z,8.07
2022-08-30T17:41:54.206Z,6.67
2022-08-30T17:44:28.764Z,6.50
2022-08-30T17:46:59.970Z,6.37
2022-08-30T17:49:28.786Z,8.00
2022-08-30T17:51:58.668Z,9.97
2022-08-30T17:54:27.587Z,8.80
2022-08-30T17:56:56.444Z,6.23
2022-08-30T17:59:26.623Z,9.10
2022-08-30T18:01:57.582Z,9.20
2022-08-30T18:04:27.580Z,9.37
2022-08-30T18:06:56.342Z,10.47
2022-08-30T18:09:24.752Z,7.40
2022-08-30T18:11:56.328Z,8.03
2022-08-30T18:14:25.976Z,7.33
2022-08-30T18:16:54.949Z,7.80
2022-08-30T18:19:24.303Z,7.47
2022-08-30T18:21:56.262Z,7.60
2022-08-30T18:24:25.210Z,8.63
2022-08-30T18:26:54.639Z,7.40
2022-08-30T18:29:30.141Z,8.87
2022-08-30T18:32:02.984Z,9.97
2022-08-30T18:34:31.643Z,8.00
2022-08-30T18:36:59.767Z,10.07
2022-08-30T18:39:34.234Z,10.07
2022-08-30T18:42:04.206Z,8.40
2022-08-30T18:47:23.012Z,8.63
2022-08-30T18:49:53.359Z,7.97
2022-08-30T18:52:22.496Z,8.17
2022-08-30T18:54:52.774Z,8.00
2022-08-30T18:57:21.504Z,8.27
2022-08-30T18:59:50.979Z,7.10
2022-08-30T19:02:19.296Z,8.67
2022-08-30T19:04:49.332Z,7.03
2022-08-30T19:07:20.167Z,8.10
2022-08-30T19:09:48.834Z,10.60
2022-08-30T19:12:17.026Z,7.70
2022-08-30T19:14:46.002Z,8.40
2022-08-30T19:17:14.655Z,6.17
2022-08-30T19:19:46.199Z,8.77
2022-08-30T19:22:19.115Z,7.13
2022-08-30T19:24:47.910Z,6.13
2022-08-30T19:27:21.312Z,7.07
2022-08-30T19:29:53.965Z,8.00
2022-08-30T19:32:22.210Z,6.90
2022-08-30T19:34:50.803Z,7.10
2022-08-30T19:37:20.773Z,6.70
2022-08-30T19:39:49.250Z,8.53
2022-08-30T19:42:17.575Z,7.80
2022-08-30T19:44:45.775Z,8.63
2022-08-30T19:47:14.334Z,7.50
2022-08-30T19:49:43.219Z,8.07
2022-08-30T19:52:11.588Z,9.60
2022-08-30T19:54:42.434Z,7.97
2022-08-30T19:57:11.814Z,8.43
2022-08-30T19:59:42.391Z,7.80
2022-08-30T20:02:10.999Z,6.83
2022-08-30T20:04:42.616Z,9.67
2022-08-30T20:07:10.816Z,9.70
2022-08-30T20:09:39.273Z,9.10
2022-08-30T20:12:10.122Z,8.80
2022-08-30T20:14:38.251Z,12.00
2022-08-30T20:17:06.414Z,8.27
2022-08-30T20:19:40.128Z,8.20
2022-08-30T20:22:08.537Z,9.63
2022-08-30T20:24:29.367Z,8.83
2022-08-30T20:24:38.308Z,7.80
2022-08-30T20:27:09.150Z,8.30
2022-08-30T20:29:38.079Z,11.67
2022-08-30T20:32:06.354Z,10.47
2022-08-30T20:34:34.433Z,13.67
2022-08-30T20:37:03.812Z,10.00
2022-08-30T20:39:33.201Z,8.70
2022-08-30T20:42:01.294Z,11.40
2022-08-30T20:44:30.952Z,11.07
2022-08-30T20:46:59.147Z,9.93
2022-08-30T20:49:28.467Z,8.60
2022-08-30T20:51:56.655Z,9.43
2022-08-30T20:54:24.992Z,8.90
2022-08-30T20:56:53.263Z,11.00
2022-08-30T20:59:21.336Z,8.80
2022-08-30T21:01:51.431Z,8.67
2022-08-30T21:04:19.679Z,10.73
2022-08-30T21:06:47.768Z,9.60
2022-08-30T21:09:16.240Z,10.20
2022-08-30T21:11:44.947Z,10.57
2022-08-30T21:14:13.907Z,10.53
2022-08-30T21:16:42.214Z,9.03
2022-08-30T21:19:11.669Z,9.43
2022-08-30T21:21:39.948Z,11.57
2022-08-30T21:24:10.147Z,9.50
2022-08-30T21:26:40.186Z,10.87
2022-08-30T21:29:08.949Z,10.37
2022-08-30T21:31:38.870Z,11.67
2022-08-30T21:34:07.604Z,9.57
2022-08-30T21:36:46.547Z,10.83
2022-08-30T21:39:18.193Z,10.63
2022-08-30T21:41:47.121Z,10.00
2022-08-30T21:44:17.218Z,15.57
2022-08-30T21:46:46.932Z,11.30
2022-08-30T21:49:17.810Z,12.50
2022-08-30T21:51:49.298Z,12.60
2022-08-30T21:54:18.462Z,12.90
2022-08-30T21:56:48.786Z,10.60
2022-08-30T21:59:18.327Z,12.40
2022-08-30T22:01:47.089Z,12.50
2022-08-30T22:04:16.196Z,10.07
2022-08-30T22:06:50.839Z,13.57
2022-08-30T22:09:21.702Z,14.90
2022-08-30T22:11:50.954Z,12.23
2022-08-30T22:14:20.944Z,16.80
2022-08-30T22:16:49.293Z,11.47
2022-08-30T22:19:22.927Z,14.33
2022-08-30T22:21:53.906Z,11.80
2022-08-30T22:24:31.913Z,13.27
2022-08-30T22:27:01.570Z,13.93
2022-08-30T22:29:30.260Z,14.60
2022-08-30T22:31:58.577Z,16.53
2022-08-30T22:34:26.811Z,12.00
2022-08-30T22:36:56.244Z,12.40
2022-08-30T22:39:24.389Z,13.37
2022-08-30T22:41:52.846Z,11.73
2022-08-30T22:44:20.894Z,11.40
2022-08-30T22:46:48.992Z,12.40
2022-08-30T22:49:17.207Z,13.07
2022-08-30T22:51:45.467Z,12.30
2022-08-30T22:54:15.603Z,12.30
2022-08-30T22:56:45.406Z,15.40
2022-08-30T22:59:13.812Z,11.30
2022-08-30T23:01:43.903Z,13.43
2022-08-30T23:04:13.824Z,11.47
2022-08-30T23:06:49.947Z,12.07
2022-08-30T23:09:20.058Z,13.00
2022-08-30T23:11:48.300Z,12.73
2022-08-30T23:14:16.381Z,12.83
2022-08-30T23:16:45.288Z,13.57
2022-08-30T23:19:13.755Z,16.20
2022-08-30T23:21:41.836Z,12.27
2022-08-30T23:24:27.675Z,15.33
2022-08-30T23:27:15.041Z,12.63
2022-08-30T23:30:00.719Z,12.90
2022-08-30T23:32:46.254Z,12.20
2022-08-30T23:35:32.665Z,13.53
2022-08-30T23:38:21.598Z,13.47
2022-08-30T23:41:07.523Z,12.43
2022-08-30T23:43:55.703Z,14.17
2022-08-30T23:46:41.494Z,12.57
2022-08-30T23:49:27.615Z,15.07
2022-08-30T23:52:13.201Z,13.93
2022-08-30T23:54:58.612Z,13.20
2022-08-30T23:57:45.099Z,14.33
